createdAt,value
2023-01-30T00:01:27.844Z,99488.61
2023-01-30T00:06:30.662Z,99467.05
2023-01-30T00:11:33.665Z,99446.02
2023-01-30T00:16:36.700Z,99433.41
2023-01-30T00:21:39.675Z,99426.17
2023-01-30T00:26:42.620Z,99417.54
2023-01-30T00:31:45.518Z,99399.61
2023-01-30T00:36:58.861Z,99386.32
2023-01-30T00:42:29.195Z,99378.73
2023-01-30T00:47:32.083Z,99370.39
2023-01-30T00:52:34.985Z,99361.09
2023-01-30T00:57:37.788Z,99354.35
2023-01-30T01:02:40.645Z,99337.27
2023-01-30T01:07:43.597Z,99331.41
2023-01-30T01:12:47.110Z,99324.20
2023-01-30T01:17:50.901Z,99311.98
2023-01-30T01:22:56.097Z,99302.70
2023-01-30T01:27:59.001Z,99284.43
2023-01-30T01:33:01.918Z,99272.02
2023-01-30T01:38:04.804Z,99257.35
2023-01-30T01:43:25.224Z,99255.60
2023-01-30T01:48:34.572Z,99250.45
2023-01-30T01:53:47.109Z,99237.17
2023-01-30T01:58:56.159Z,99227.01
2023-01-30T02:04:03.932Z,99207.54
2023-01-30T02:09:10.043Z,99183.52
2023-01-30T02:14:15.200Z,99165.07
2023-01-30T02:20:02.649Z,99152.48
2023-01-30T02:25:17.632Z,99140.09
2023-01-30T02:30:55.936Z,99126.15
2023-01-30T02:36:21.306Z,99096.36
2023-01-30T02:41:42.431Z,99097.23
2023-01-30T02:46:59.257Z,99084.65
2023-01-30T02:52:03.643Z,99070.54
2023-01-30T02:57:21.766Z,99063.66
2023-01-30T03:02:30.876Z,99067.12
2023-01-30T03:07:36.792Z,99055.77
2023-01-30T03:12:55.001Z,99038.34
2023-01-30T03:17:58.669Z,99026.08
2023-01-30T03:23:01.586Z,99019.52
2023-01-30T03:28:06.425Z,99007.05
2023-01-30T03:33:09.918Z,98991.72
2023-01-30T03:38:13.661Z,98967.23
2023-01-30T03:43:16.661Z,98950.98
2023-01-30T03:48:19.567Z,98957.69
2023-01-30T03:53:22.580Z,98961.13
2023-01-30T03:58:25.581Z,98951.48
2023-01-30T04:03:28.587Z,98937.31
2023-01-30T04:08:31.485Z,98926.66
2023-01-30T04:13:34.599Z,98935.28
2023-01-30T04:18:37.499Z,98933.39
2023-01-30T04:23:40.708Z,98921.64
2023-01-30T04:28:44.784Z,98894.58
2023-01-30T04:33:47.636Z,98883.05
2023-01-30T04:38:51.058Z,98857.60
2023-01-30T04:43:53.812Z,98836.95
2023-01-30T04:48:56.768Z,98818.90
2023-01-30T04:53:59.769Z,98808.02
2023-01-30T04:59:02.672Z,98798.14
2023-01-30T05:04:07.322Z,98778.42
2023-01-30T05:09:10.221Z,98756.09
2023-01-30T05:14:13.121Z,98751.69
2023-01-30T05:19:16.146Z,98728.45
2023-01-30T05:24:19.037Z,98709.02
2023-01-30T05:29:21.935Z,98708.71
2023-01-30T05:34:24.751Z,98703.27
2023-01-30T05:39:27.538Z,98687.81
2023-01-30T05:44:30.859Z,98685.11
2023-01-30T05:49:33.753Z,98677.38
2023-01-30T05:54:36.655Z,98663.73
2023-01-30T05:59:39.457Z,98656.70
2023-01-30T06:04:42.364Z,98657.74
2023-01-30T06:09:45.162Z,98651.59
2023-01-30T06:14:47.983Z,98657.27
2023-01-30T06:19:50.871Z,98638.00
2023-01-30T06:24:54.044Z,98623.04
2023-01-30T06:29:56.777Z,98614.13
2023-01-30T06:34:59.575Z,98607.56
2023-01-30T06:40:02.479Z,98591.55
2023-01-30T06:45:06.371Z,98593.42
2023-01-30T06:50:09.618Z,98580.86
2023-01-30T06:55:13.750Z,98577.34
2023-01-30T07:00:20.779Z,98570.24
2023-01-30T07:05:23.652Z,98567.98
2023-01-30T07:10:26.659Z,98564.80
2023-01-30T07:15:30.292Z,98556.25
2023-01-30T07:20:33.283Z,98561.65
2023-01-30T07:25:36.091Z,98556.67
2023-01-30T07:30:39.125Z,98552.13
2023-01-30T07:35:42.097Z,98536.88
2023-01-30T07:40:45.003Z,98530.03
2023-01-30T07:45:49.055Z,98524.85
2023-01-30T07:50:56.691Z,98513.07
2023-01-30T07:56:10.795Z,98517.09
2023-01-30T08:01:14.039Z,98515.48
2023-01-30T08:06:17.320Z,98502.64
2023-01-30T08:11:20.081Z,98500.72
2023-01-30T08:16:23.186Z,98486.70
2023-01-30T08:21:26.153Z,98478.13
2023-01-30T08:26:29.060Z,98457.20
2023-01-30T08:31:32.428Z,98454.31
2023-01-30T08:36:35.373Z,98465.47
2023-01-30T08:41:38.172Z,98465.44
2023-01-30T08:46:41.132Z,98461.11
2023-01-30T08:51:44.289Z,98459.42
2023-01-30T08:56:47.097Z,98457.52
2023-01-30T09:01:49.888Z,98454.64
2023-01-30T09:06:53.000Z,98453.33
2023-01-30T09:11:56.003Z,98452.16
2023-01-30T09:16:59.139Z,98441.83
2023-01-30T09:22:01.961Z,98439.19
2023-01-30T09:27:04.783Z,98442.53
2023-01-30T09:32:07.723Z,98441.52
2023-01-30T09:37:10.542Z,98430.95
2023-01-30T09:42:37.201Z,98434.42
2023-01-30T09:47:49.030Z,98424.60
2023-01-30T09:53:05.825Z,98434.45
2023-01-30T09:58:17.947Z,98426.67
2023-01-30T10:03:28.963Z,98424.02
2023-01-30T10:08:51.438Z,98410.98
2023-01-30T10:14:01.484Z,98410.23
2023-01-30T10:19:43.209Z,98402.63
2023-01-30T10:25:20.495Z,98390.20
2023-01-30T10:30:24.005Z,98382.51
2023-01-30T10:35:35.924Z,98385.20
2023-01-30T10:40:44.975Z,98394.02
2023-01-30T10:45:56.168Z,98395.77
2023-01-30T10:51:03.519Z,98391.36
2023-01-30T10:56:31.368Z,98386.77
2023-01-30T11:01:58.779Z,98397.42
2023-01-30T11:07:02.872Z,98391.25
2023-01-30T11:12:06.119Z,98386.16
2023-01-30T11:17:16.155Z,98371.98
2023-01-30T11:22:19.575Z,98366.61
2023-01-30T11:27:25.919Z,98352.59
2023-01-30T11:32:29.700Z,98350.33
2023-01-30T11:37:35.049Z,98355.41
2023-01-30T11:42:45.319Z,98345.73
2023-01-30T11:48:05.049Z,98326.30
2023-01-30T11:53:31.882Z,98317.37
2023-01-30T11:58:38.681Z,98301.59
2023-01-30T12:03:51.636Z,98296.36
2023-01-30T12:08:55.233Z,98303.72
2023-01-30T12:14:15.517Z,98301.30
2023-01-30T12:19:45.584Z,98296.55
2023-01-30T12:25:20.556Z,98290.70
2023-01-30T12:30:34.914Z,98286.58
2023-01-30T12:35:58.604Z,98283.65
2023-01-30T12:41:28.550Z,98287.77
2023-01-30T12:46:50.388Z,98283.78
2023-01-30T12:52:38.450Z,98274.27
2023-01-30T12:58:06.677Z,98273.31
2023-01-30T13:03:42.803Z,98288.92
2023-01-30T13:08:51.580Z,98287.20
2023-01-30T13:14:26.941Z,98290.00
2023-01-30T13:19:58.440Z,98293.36
2023-01-30T13:25:20.359Z,98291.77
2023-01-30T13:30:25.609Z,98288.27
2023-01-30T13:35:34.598Z,98285.38
2023-01-30T13:40:42.381Z,98282.12
2023-01-30T13:45:49.128Z,98273.27
2023-01-30T13:51:13.081Z,98273.65
2023-01-30T13:56:40.650Z,98271.41
2023-01-30T14:02:00.173Z,98275.75
2023-01-30T14:07:12.161Z,98267.25
2023-01-30T14:12:22.360Z,98266.90
2023-01-30T14:17:25.217Z,98264.29
2023-01-30T14:22:50.101Z,98264.88
2023-01-30T14:28:14.885Z,98252.77
2023-01-30T14:33:23.410Z,98260.42
2023-01-30T14:38:28.638Z,98278.04
2023-01-30T14:43:42.150Z,98285.98
2023-01-30T14:48:50.146Z,98278.64
2023-01-30T14:54:13.188Z,98281.45
2023-01-30T14:59:16.584Z,98284.94
2023-01-30T15:04:20.163Z,98281.45
2023-01-30T15:09:27.256Z,98271.20
2023-01-30T15:14:54.026Z,98270.98
2023-01-30T15:20:22.014Z,98281.80
2023-01-30T15:25:33.824Z,98275.74
2023-01-30T15:31:01.609Z,98268.72
2023-01-30T15:36:19.536Z,98277.27
2023-01-30T15:41:22.543Z,98284.83
2023-01-30T15:46:33.362Z,98291.27
2023-01-30T15:51:36.469Z,98294.05
2023-01-30T15:56:40.892Z,98294.97
2023-01-30T16:01:43.814Z,98311.05
2023-01-30T16:06:46.720Z,98325.81
2023-01-30T16:11:50.494Z,98323.68
2023-01-30T16:17:03.590Z,98324.05
2023-01-30T16:22:17.118Z,98345.48
2023-01-30T16:27:40.895Z,98347.14
2023-01-30T16:32:43.878Z,98344.58
2023-01-30T16:37:47.145Z,98344.61
2023-01-30T16:43:02.453Z,98349.09
2023-01-30T16:48:30.969Z,98347.45
2023-01-30T16:53:34.357Z,98350.98
2023-01-30T16:58:38.621Z,98355.69
2023-01-30T17:03:43.580Z,98358.45
2023-01-30T17:08:55.488Z,98356.25
2023-01-30T17:14:20.381Z,98357.77
2023-01-30T17:19:23.181Z,98358.48
2023-01-30T17:24:27.077Z,98362.27
2023-01-30T17:29:42.510Z,98363.98
2023-01-30T17:34:45.918Z,98368.93
2023-01-30T17:39:49.490Z,98383.61
2023-01-30T17:44:52.649Z,98370.98
2023-01-30T17:49:55.967Z,98375.70
2023-01-30T17:54:58.765Z,98384.23
2023-01-30T18:00:01.771Z,98368.27
2023-01-30T18:05:05.221Z,98374.90
2023-01-30T18:10:16.400Z,98380.73
2023-01-30T18:15:19.607Z,98374.73
2023-01-30T18:20:22.770Z,98369.41
2023-01-30T18:25:25.713Z,98380.84
2023-01-30T18:30:28.610Z,98387.15
2023-01-30T18:35:31.408Z,98389.83
2023-01-30T18:40:34.313Z,98393.05
2023-01-30T18:45:37.214Z,98393.36
2023-01-30T18:50:40.118Z,98395.95
2023-01-30T18:55:50.482Z,98406.69
2023-01-30T19:00:53.608Z,98420.48
2023-01-30T19:05:56.612Z,98423.16
2023-01-30T19:11:30.347Z,98433.75
2023-01-30T19:16:35.191Z,98432.92
2023-01-30T19:21:38.360Z,98441.92
2023-01-30T19:26:41.686Z,98448.02
2023-01-30T19:31:47.468Z,98451.93
2023-01-30T19:36:50.429Z,98455.72
2023-01-30T19:41:53.299Z,98458.31
2023-01-30T19:46:56.193Z,98457.13
2023-01-30T19:52:02.274Z,98454.86
2023-01-30T19:57:05.070Z,98454.11
2023-01-30T20:02:10.039Z,98463.89
2023-01-30T20:07:12.931Z,98464.39
2023-01-30T20:12:15.729Z,98463.36
2023-01-30T20:17:18.528Z,98468.98
2023-01-30T20:22:21.361Z,98468.80
2023-01-30T20:27:24.337Z,98471.57
2023-01-30T20:32:27.160Z,98473.80
2023-01-30T20:37:30.038Z,98482.55
2023-01-30T20:42:32.841Z,98488.15
2023-01-30T20:47:35.641Z,98499.65
2023-01-30T20:52:38.753Z,98514.12
2023-01-30T20:57:45.047Z,98519.68
2023-01-30T21:02:51.316Z,98519.02
2023-01-30T21:07:54.219Z,98523.50
2023-01-30T21:12:57.123Z,98522.81
2023-01-30T21:18:00.338Z,98516.73
2023-01-30T21:23:03.243Z,98522.10
2023-01-30T21:28:06.141Z,98535.06
2023-01-30T21:33:09.044Z,98540.92
2023-01-30T21:38:30.994Z,98553.06
2023-01-30T21:43:33.796Z,98559.68
2023-01-30T21:48:36.595Z,98560.46
2023-01-30T21:53:39.396Z,98563.66
2023-01-30T21:58:42.507Z,98566.05
2023-01-30T22:03:45.451Z,98571.14
2023-01-30T22:08:48.414Z,98579.79
2023-01-30T22:13:51.838Z,98575.02
2023-01-30T22:18:55.867Z,98598.62
2023-01-30T22:23:59.178Z,98613.13
2023-01-30T22:29:02.905Z,98618.74
2023-01-30T22:34:06.720Z,98630.88
2023-01-30T22:39:09.729Z,98639.65
2023-01-30T22:44:12.627Z,98641.20
2023-01-30T22:49:15.538Z,98648.54
2023-01-30T22:54:18.437Z,98660.57
2023-01-30T22:59:22.062Z,98661.30
2023-01-30T23:04:24.963Z,98665.86
2023-01-30T23:09:27.971Z,98668.88
2023-01-30T23:14:30.874Z,98678.06
2023-01-30T23:19:33.674Z,98682.83
2023-01-30T23:24:36.776Z,98679.30
2023-01-30T23:29:40.109Z,98687.25
2023-01-30T23:34:43.122Z,98683.59
2023-01-30T23:39:46.002Z,98690.81
2023-01-30T23:44:48.804Z,98692.21
2023-01-30T23:49:51.704Z,98698.12
2023-01-30T23:54:54.606Z,98694.61
2023-01-30T23:59:57.516Z,98700.66
